sensor_id;sensor_type;location;lat;lon;timestamp;P1;durP1;ratioP1;P2;durP2;ratioP2
36653;SDS011;22650;49.350;20.898;2024-03-23T00:52:49;24.15;;;15.20;;
36653;SDS011;22650;49.350;20.898;2024-03-23T00:55:20;22.55;;;14.52;;
36653;SDS011;22650;49.350;20.898;2024-03-23T00:57:53;23.30;;;14.32;;
36653;SDS011;22650;49.350;20.898;2024-03-23T01:00:24;22.75;;;14.70;;
36653;SDS011;22650;49.350;20.898;2024-03-23T01:02:57;20.83;;;12.55;;
36653;SDS011;22650;49.350;20.898;2024-03-23T01:05:28;22.60;;;14.63;;
36653;SDS011;22650;49.350;20.898;2024-03-23T01:08:03;25.35;;;15.02;;
36653;SDS011;22650;49.350;20.898;2024-03-23T01:10:35;20.33;;;13.52;;
36653;SDS011;22650;49.350;20.898;2024-03-23T01:13:07;15.75;;;11.23;;
36653;SDS011;22650;49.350;20.898;2024-03-23T01:15:39;25.13;;;14.65;;
36653;SDS011;22650;49.350;20.898;2024-03-23T01:18:11;24.85;;;14.98;;
36653;SDS011;22650;49.350;20.898;2024-03-23T01:20:43;19.30;;;12.57;;
36653;SDS011;22650;49.350;20.898;2024-03-23T01:23:17;18.88;;;12.32;;
36653;SDS011;22650;49.350;20.898;2024-03-23T01:25:52;21.27;;;13.25;;
36653;SDS011;22650;49.350;20.898;2024-03-23T01:28:24;18.83;;;12.50;;
36653;SDS011;22650;49.350;20.898;2024-03-23T01:30:56;20.80;;;12.93;;
36653;SDS011;22650;49.350;20.898;2024-03-23T01:33:29;19.30;;;12.55;;
36653;SDS011;22650;49.350;20.898;2024-03-23T01:36:00;16.85;;;11.48;;
36653;SDS011;22650;49.350;20.898;2024-03-23T01:38:35;20.17;;;13.00;;
36653;SDS011;22650;49.350;20.898;2024-03-23T01:41:07;26.30;;;14.57;;
36653;SDS011;22650;49.350;20.898;2024-03-23T01:43:40;20.42;;;12.73;;
36653;SDS011;22650;49.350;20.898;2024-03-23T01:46:11;18.58;;;12.25;;
36653;SDS011;22650;49.350;20.898;2024-03-23T01:48:44;19.75;;;13.15;;
36653;SDS011;22650;49.350;20.898;2024-03-23T01:51:17;22.55;;;13.32;;
36653;SDS011;22650;49.350;20.898;2024-03-23T01:53:51;17.45;;;11.18;;
36653;SDS011;22650;49.350;20.898;2024-03-23T01:56:25;20.73;;;12.90;;
36653;SDS011;22650;49.350;20.898;2024-03-23T01:58:57;22.63;;;14.10;;
36653;SDS011;22650;49.350;20.898;2024-03-23T02:01:29;24.00;;;14.90;;
36653;SDS011;22650;49.350;20.898;2024-03-23T02:04:01;21.08;;;13.23;;
36653;SDS011;22650;49.350;20.898;2024-03-23T02:06:33;19.17;;;11.38;;
36653;SDS011;22650;49.350;20.898;2024-03-23T02:09:07;23.17;;;12.88;;
36653;SDS011;22650;49.350;20.898;2024-03-23T02:11:39;18.30;;;12.48;;
36653;SDS011;22650;49.350;20.898;2024-03-23T02:14:11;21.92;;;11.95;;
36653;SDS011;22650;49.350;20.898;2024-03-23T02:16:43;17.48;;;12.00;;
36653;SDS011;22650;49.350;20.898;2024-03-23T02:19:17;17.60;;;10.63;;
36653;SDS011;22650;49.350;20.898;2024-03-23T02:21:48;25.65;;;13.85;;
36653;SDS011;22650;49.350;20.898;2024-03-23T02:24:24;16.48;;;11.00;;
36653;SDS011;22650;49.350;20.898;2024-03-23T02:26:55;20.55;;;12.20;;
36653;SDS011;22650;49.350;20.898;2024-03-23T02:29:28;24.10;;;13.18;;
36653;SDS011;22650;49.350;20.898;2024-03-23T02:31:59;18.45;;;11.88;;
36653;SDS011;22650;49.350;20.898;2024-03-23T02:34:32;17.25;;;10.57;;
36653;SDS011;22650;49.350;20.898;2024-03-23T02:37:09;18.70;;;11.98;;
36653;SDS011;22650;49.350;20.898;2024-03-23T02:39:44;17.15;;;11.75;;
36653;SDS011;22650;49.350;20.898;2024-03-23T02:42:15;18.90;;;13.40;;
36653;SDS011;22650;49.350;20.898;2024-03-23T02:44:48;21.52;;;13.25;;
36653;SDS011;22650;49.350;20.898;2024-03-23T02:47:20;19.00;;;12.27;;
36653;SDS011;22650;49.350;20.898;2024-03-23T02:49:52;18.85;;;11.45;;
36653;SDS011;22650;49.350;20.898;2024-03-23T02:52:25;18.48;;;13.18;;
36653;SDS011;22650;49.350;20.898;2024-03-23T02:54:59;20.98;;;13.25;;
36653;SDS011;22650;49.350;20.898;2024-03-23T02:57:32;18.38;;;12.25;;
36653;SDS011;22650;49.350;20.898;2024-03-23T03:00:05;19.15;;;11.95;;
36653;SDS011;22650;49.350;20.898;2024-03-23T03:02:38;21.90;;;12.65;;
36653;SDS011;22650;49.350;20.898;2024-03-23T03:05:10;21.92;;;12.65;;
36653;SDS011;22650;49.350;20.898;2024-03-23T03:07:43;17.95;;;11.30;;
36653;SDS011;22650;49.350;20.898;2024-03-23T03:10:17;18.50;;;11.75;;
36653;SDS011;22650;49.350;20.898;2024-03-23T03:12:48;18.08;;;11.75;;
36653;SDS011;22650;49.350;20.898;2024-03-23T03:15:21;17.73;;;11.55;;
36653;SDS011;22650;49.350;20.898;2024-03-23T03:17:53;16.90;;;10.77;;
36653;SDS011;22650;49.350;20.898;2024-03-23T03:20:25;18.13;;;11.93;;
36653;SDS011;22650;49.350;20.898;2024-03-23T03:22:57;21.20;;;12.05;;
36653;SDS011;22650;49.350;20.898;2024-03-23T03:25:31;19.77;;;12.05;;
36653;SDS011;22650;49.350;20.898;2024-03-23T03:28:02;20.15;;;12.00;;
36653;SDS011;22650;49.350;20.898;2024-03-23T03:30:35;21.10;;;12.68;;
36653;SDS011;22650;49.350;20.898;2024-03-23T03:33:07;21.58;;;13.65;;
36653;SDS011;22650;49.350;20.898;2024-03-23T03:35:39;17.90;;;11.38;;
36653;SDS011;22650;49.350;20.898;2024-03-23T03:38:11;21.80;;;11.65;;
36653;SDS011;22650;49.350;20.898;2024-03-23T03:40:45;17.52;;;12.50;;
36653;SDS011;22650;49.350;20.898;2024-03-23T03:43:17;15.85;;;11.02;;
36653;SDS011;22650;49.350;20.898;2024-03-23T03:45:52;16.40;;;10.88;;
36653;SDS011;22650;49.350;20.898;2024-03-23T03:48:24;21.60;;;11.93;;
36653;SDS011;22650;49.350;20.898;2024-03-23T03:50:56;17.98;;;11.48;;
36653;SDS011;22650;49.350;20.898;2024-03-23T03:53:28;16.88;;;11.88;;
36653;SDS011;22650;49.350;20.898;2024-03-23T03:56:02;22.10;;;12.30;;
36653;SDS011;22650;49.350;20.898;2024-03-23T03:58:34;18.90;;;11.85;;
36653;SDS011;22650;49.350;20.898;2024-03-23T04:01:07;20.60;;;12.57;;
36653;SDS011;22650;49.350;20.898;2024-03-23T04:03:38;21.77;;;12.30;;
36653;SDS011;22650;49.350;20.898;2024-03-23T04:06:18;17.45;;;11.18;;
36653;SDS011;22650;49.350;20.898;2024-03-23T04:08:50;15.98;;;10.65;;
36653;SDS011;22650;49.350;20.898;2024-03-23T04:11:24;17.98;;;12.32;;
36653;SDS011;22650;49.350;20.898;2024-03-23T04:13:55;15.82;;;10.63;;
36653;SDS011;22650;49.350;20.898;2024-03-23T04:16:28;19.85;;;12.55;;
36653;SDS011;22650;49.350;20.898;2024-03-23T04:19:00;18.08;;;12.10;;
36653;SDS011;22650;49.350;20.898;2024-03-23T04:21:33;20.25;;;12.52;;
36653;SDS011;22650;49.350;20.898;2024-03-23T04:24:05;19.42;;;12.27;;
36653;SDS011;22650;49.350;20.898;2024-03-23T04:26:43;21.42;;;14.20;;
36653;SDS011;22650;49.350;20.898;2024-03-23T04:29:14;16.20;;;11.27;;
36653;SDS011;22650;49.350;20.898;2024-03-23T04:31:47;17.05;;;11.43;;
36653;SDS011;22650;49.350;20.898;2024-03-23T04:34:18;16.63;;;11.50;;
36653;SDS011;22650;49.350;20.898;2024-03-23T04:36:51;22.83;;;13.35;;
36653;SDS011;22650;49.350;20.898;2024-03-23T04:39:23;22.52;;;13.55;;
36653;SDS011;22650;49.350;20.898;2024-03-23T04:41:57;19.90;;;12.98;;
36653;SDS011;22650;49.350;20.898;2024-03-23T04:44:29;19.02;;;12.50;;
36653;SDS011;22650;49.350;20.898;2024-03-23T04:47:02;19.23;;;12.65;;
36653;SDS011;22650;49.350;20.898;2024-03-23T04:49:37;20.35;;;12.23;;
36653;SDS011;22650;49.350;20.898;2024-03-23T04:52:10;23.42;;;13.10;;
36653;SDS011;22650;49.350;20.898;2024-03-23T04:54:44;20.10;;;11.27;;
36653;SDS011;22650;49.350;20.898;2024-03-23T04:57:18;20.90;;;12.95;;
36653;SDS011;22650;49.350;20.898;2024-03-23T04:59:51;21.35;;;12.25;;
36653;SDS011;22650;49.350;20.898;2024-03-23T05:02:23;13.85;;;9.65;;
36653;SDS011;22650;49.350;20.898;2024-03-23T05:04:56;20.38;;;12.50;;
36653;SDS011;22650;49.350;20.898;2024-03-23T05:07:28;20.00;;;12.52;;
36653;SDS011;22650;49.350;20.898;2024-03-23T05:10:00;20.90;;;12.90;;
36653;SDS011;22650;49.350;20.898;2024-03-23T05:12:33;20.67;;;13.65;;
36653;SDS011;22650;49.350;20.898;2024-03-23T05:15:06;20.80;;;12.52;;
36653;SDS011;22650;49.350;20.898;2024-03-23T05:17:38;22.83;;;15.10;;
36653;SDS011;22650;49.350;20.898;2024-03-23T05:20:11;20.17;;;13.20;;
36653;SDS011;22650;49.350;20.898;2024-03-23T05:22:43;21.40;;;12.82;;
36653;SDS011;22650;49.350;20.898;2024-03-23T05:25:15;19.42;;;12.68;;
36653;SDS011;22650;49.350;20.898;2024-03-23T05:27:48;23.60;;;13.80;;
36653;SDS011;22650;49.350;20.898;2024-03-23T05:30:21;19.65;;;12.55;;
36653;SDS011;22650;49.350;20.898;2024-03-23T05:32:52;18.25;;;13.43;;
36653;SDS011;22650;49.350;20.898;2024-03-23T05:35:26;19.38;;;12.90;;
36653;SDS011;22650;49.350;20.898;2024-03-23T05:37:57;19.63;;;13.10;;
36653;SDS011;22650;49.350;20.898;2024-03-23T05:40:30;22.98;;;13.73;;
36653;SDS011;22650;49.350;20.898;2024-03-23T05:43:03;17.48;;;11.48;;
36653;SDS011;22650;49.350;20.898;2024-03-23T05:45:36;18.13;;;11.85;;
36653;SDS011;22650;49.350;20.898;2024-03-23T05:48:07;23.17;;;13.00;;
36653;SDS011;22650;49.350;20.898;2024-03-23T05:50:40;22.67;;;13.45;;
36653;SDS011;22650;49.350;20.898;2024-03-23T05:53:11;18.52;;;12.98;;
36653;SDS011;22650;49.350;20.898;2024-03-23T05:55:44;19.42;;;13.63;;
36653;SDS011;22650;49.350;20.898;2024-03-23T05:58:17;19.73;;;13.27;;
36653;SDS011;22650;49.350;20.898;2024-03-23T06:00:56;21.98;;;13.05;;
36653;SDS011;22650;49.350;20.898;2024-03-23T06:03:28;19.92;;;12.65;;
36653;SDS011;22650;49.350;20.898;2024-03-23T06:06:01;21.63;;;13.05;;
36653;SDS011;22650;49.350;20.898;2024-03-23T06:08:33;21.70;;;14.13;;
36653;SDS011;22650;49.350;20.898;2024-03-23T06:11:06;24.02;;;15.32;;
36653;SDS011;22650;49.350;20.898;2024-03-23T06:13:39;21.75;;;14.50;;
36653;SDS011;22650;49.350;20.898;2024-03-23T06:16:12;23.10;;;14.63;;
36653;SDS011;22650;49.350;20.898;2024-03-23T06:18:43;18.58;;;11.98;;
36653;SDS011;22650;49.350;20.898;2024-03-23T06:21:16;20.42;;;13.18;;
36653;SDS011;22650;49.350;20.898;2024-03-23T06:23:47;20.58;;;13.13;;
36653;SDS011;22650;49.350;20.898;2024-03-23T06:26:23;23.63;;;13.80;;
36653;SDS011;22650;49.350;20.898;2024-03-23T06:29:01;23.13;;;14.32;;
36653;SDS011;22650;49.350;20.898;2024-03-23T06:31:34;28.10;;;15.75;;
36653;SDS011;22650;49.350;20.898;2024-03-23T06:34:08;21.05;;;13.25;;
36653;SDS011;22650;49.350;20.898;2024-03-23T06:36:41;21.92;;;14.10;;
36653;SDS011;22650;49.350;20.898;2024-03-23T06:39:12;18.83;;;12.75;;
36653;SDS011;22650;49.350;20.898;2024-03-23T06:41:51;22.55;;;14.27;;
36653;SDS011;22650;49.350;20.898;2024-03-23T06:44:28;20.35;;;12.90;;
36653;SDS011;22650;49.350;20.898;2024-03-23T06:47:05;20.45;;;12.63;;
36653;SDS011;22650;49.350;20.898;2024-03-23T06:49:38;22.25;;;14.05;;
36653;SDS011;22650;49.350;20.898;2024-03-23T06:52:19;17.80;;;11.20;;
36653;SDS011;22650;49.350;20.898;2024-03-23T06:54:53;20.42;;;12.85;;
36653;SDS011;22650;49.350;20.898;2024-03-23T06:57:26;20.58;;;12.52;;
36653;SDS011;22650;49.350;20.898;2024-03-23T07:00:01;22.90;;;14.27;;
36653;SDS011;22650;49.350;20.898;2024-03-23T07:02:40;20.67;;;13.55;;
36653;SDS011;22650;49.350;20.898;2024-03-23T07:05:12;22.55;;;13.50;;
36653;SDS011;22650;49.350;20.898;2024-03-23T07:07:45;21.05;;;14.57;;
36653;SDS011;22650;49.350;20.898;2024-03-23T07:10:16;18.92;;;12.88;;
36653;SDS011;22650;49.350;20.898;2024-03-23T07:12:49;23.92;;;14.00;;
36653;SDS011;22650;49.350;20.898;2024-03-23T07:15:22;22.13;;;14.18;;
36653;SDS011;22650;49.350;20.898;2024-03-23T07:17:54;25.17;;;15.15;;
36653;SDS011;22650;49.350;20.898;2024-03-23T07:20:26;23.58;;;13.65;;
36653;SDS011;22650;49.350;20.898;2024-03-23T07:23:01;24.98;;;13.90;;
36653;SDS011;22650;49.350;20.898;2024-03-23T07:25:32;24.77;;;14.93;;
36653;SDS011;22650;49.350;20.898;2024-03-23T07:28:05;21.80;;;14.02;;
36653;SDS011;22650;49.350;20.898;2024-03-23T07:30:38;26.52;;;13.68;;
36653;SDS011;22650;49.350;20.898;2024-03-23T07:33:10;23.67;;;13.15;;
36653;SDS011;22650;49.350;20.898;2024-03-23T07:35:42;21.17;;;13.20;;
36653;SDS011;22650;49.350;20.898;2024-03-23T07:38:15;21.67;;;14.60;;
36653;SDS011;22650;49.350;20.898;2024-03-23T07:40:46;19.55;;;12.63;;
36653;SDS011;22650;49.350;20.898;2024-03-23T07:43:20;21.63;;;13.77;;
36653;SDS011;22650;49.350;20.898;2024-03-23T07:45:53;26.40;;;17.02;;
36653;SDS011;22650;49.350;20.898;2024-03-23T07:48:26;23.00;;;14.25;;
36653;SDS011;22650;49.350;20.898;2024-03-23T07:50:59;23.02;;;13.57;;
36653;SDS011;22650;49.350;20.898;2024-03-23T07:53:33;23.35;;;14.40;;
36653;SDS011;22650;49.350;20.898;2024-03-23T07:56:05;22.75;;;13.60;;
36653;SDS011;22650;49.350;20.898;2024-03-23T07:58:39;21.90;;;14.30;;
36653;SDS011;22650;49.350;20.898;2024-03-23T08:01:12;26.05;;;16.27;;
36653;SDS011;22650;49.350;20.898;2024-03-23T08:03:46;24.42;;;14.38;;
36653;SDS011;22650;49.350;20.898;2024-03-23T08:06:18;21.10;;;13.73;;
36653;SDS011;22650;49.350;20.898;2024-03-23T08:11:30;19.35;;;12.63;;
36653;SDS011;22650;49.350;20.898;2024-03-23T08:14:18;23.92;;;13.90;;
36653;SDS011;22650;49.350;20.898;2024-03-23T08:16:55;23.75;;;13.65;;
36653;SDS011;22650;49.350;20.898;2024-03-23T08:19:28;22.73;;;14.57;;
36653;SDS011;22650;49.350;20.898;2024-03-23T08:22:00;16.70;;;11.50;;
36653;SDS011;22650;49.350;20.898;2024-03-23T08:24:34;18.48;;;11.70;;
36653;SDS011;22650;49.350;20.898;2024-03-23T08:27:05;18.98;;;11.77;;
36653;SDS011;22650;49.350;20.898;2024-03-23T08:29:38;20.00;;;13.82;;
36653;SDS011;22650;49.350;20.898;2024-03-23T08:32:11;21.95;;;13.38;;
36653;SDS011;22650;49.350;20.898;2024-03-23T08:34:44;19.40;;;13.32;;
36653;SDS011;22650;49.350;20.898;2024-03-23T08:37:16;20.45;;;14.02;;
36653;SDS011;22650;49.350;20.898;2024-03-23T08:39:48;22.50;;;13.93;;
36653;SDS011;22650;49.350;20.898;2024-03-23T08:42:22;22.67;;;14.93;;
36653;SDS011;22650;49.350;20.898;2024-03-23T08:44:55;21.27;;;14.80;;
36653;SDS011;22650;49.350;20.898;2024-03-23T08:47:28;19.58;;;13.13;;
36653;SDS011;22650;49.350;20.898;2024-03-23T08:50:00;20.85;;;13.63;;
36653;SDS011;22650;49.350;20.898;2024-03-23T08:52:33;22.58;;;13.23;;
36653;SDS011;22650;49.350;20.898;2024-03-23T08:55:10;20.92;;;13.77;;
36653;SDS011;22650;49.350;20.898;2024-03-23T08:57:42;22.08;;;15.02;;
36653;SDS011;22650;49.350;20.898;2024-03-23T09:00:16;20.00;;;13.60;;
36653;SDS011;22650;49.350;20.898;2024-03-23T09:02:50;19.70;;;12.48;;
36653;SDS011;22650;49.350;20.898;2024-03-23T09:07:55;20.35;;;12.75;;
36653;SDS011;22650;49.350;20.898;2024-03-23T09:10:27;22.08;;;14.30;;
36653;SDS011;22650;49.350;20.898;2024-03-23T09:12:59;17.75;;;11.65;;
36653;SDS011;22650;49.350;20.898;2024-03-23T09:15:32;20.50;;;13.18;;
36653;SDS011;22650;49.350;20.898;2024-03-23T09:18:06;19.17;;;12.52;;
36653;SDS011;22650;49.350;20.898;2024-03-23T09:20:39;19.48;;;12.77;;
36653;SDS011;22650;49.350;20.898;2024-03-23T09:23:11;15.55;;;11.02;;
36653;SDS011;22650;49.350;20.898;2024-03-23T09:25:43;17.25;;;12.57;;
36653;SDS011;22650;49.350;20.898;2024-03-23T09:28:15;19.10;;;12.88;;
36653;SDS011;22650;49.350;20.898;2024-03-23T09:30:47;21.58;;;15.15;;
36653;SDS011;22650;49.350;20.898;2024-03-23T09:33:20;20.27;;;14.27;;
36653;SDS011;22650;49.350;20.898;2024-03-23T09:35:53;21.92;;;13.77;;
36653;SDS011;22650;49.350;20.898;2024-03-23T09:38:26;21.02;;;14.05;;
36653;SDS011;22650;49.350;20.898;2024-03-23T09:41:06;17.90;;;12.50;;
36653;SDS011;22650;49.350;20.898;2024-03-23T09:43:39;19.92;;;13.68;;
36653;SDS011;22650;49.350;20.898;2024-03-23T09:46:12;17.25;;;12.98;;
36653;SDS011;22650;49.350;20.898;2024-03-23T09:48:45;16.30;;;12.15;;
36653;SDS011;22650;49.350;20.898;2024-03-23T09:51:19;18.50;;;13.00;;
36653;SDS011;22650;49.350;20.898;2024-03-23T09:53:50;18.02;;;12.65;;
36653;SDS011;22650;49.350;20.898;2024-03-23T09:56:24;18.30;;;11.98;;
36653;SDS011;22650;49.350;20.898;2024-03-23T09:59:00;17.42;;;13.05;;
36653;SDS011;22650;49.350;20.898;2024-03-23T10:01:33;18.48;;;13.27;;
36653;SDS011;22650;49.350;20.898;2024-03-23T10:04:06;20.70;;;14.00;;
36653;SDS011;22650;49.350;20.898;2024-03-23T10:06:39;19.02;;;12.80;;
36653;SDS011;22650;49.350;20.898;2024-03-23T10:09:15;16.95;;;12.88;;
36653;SDS011;22650;49.350;20.898;2024-03-23T10:11:49;22.02;;;14.68;;
36653;SDS011;22650;49.350;20.898;2024-03-23T10:14:25;18.38;;;12.13;;
36653;SDS011;22650;49.350;20.898;2024-03-23T10:17:11;16.85;;;11.38;;
36653;SDS011;22650;49.350;20.898;2024-03-23T10:19:46;17.73;;;11.50;;
36653;SDS011;22650;49.350;20.898;2024-03-23T10:22:21;14.68;;;11.65;;
36653;SDS011;22650;49.350;20.898;2024-03-23T10:24:55;16.73;;;12.13;;
36653;SDS011;22650;49.350;20.898;2024-03-23T10:27:40;19.02;;;10.90;;
36653;SDS011;22650;49.350;20.898;2024-03-23T10:30:12;14.48;;;10.77;;
36653;SDS011;22650;49.350;20.898;2024-03-23T10:32:46;17.15;;;12.05;;
36653;SDS011;22650;49.350;20.898;2024-03-23T10:35:21;18.17;;;10.85;;
36653;SDS011;22650;49.350;20.898;2024-03-23T10:37:55;13.75;;;9.48;;
36653;SDS011;22650;49.350;20.898;2024-03-23T10:40:28;11.85;;;9.23;;
36653;SDS011;22650;49.350;20.898;2024-03-23T10:43:02;18.23;;;13.13;;
36653;SDS011;22650;49.350;20.898;2024-03-23T10:45:34;15.82;;;11.60;;
36653;SDS011;22650;49.350;20.898;2024-03-23T10:48:07;14.95;;;10.75;;
36653;SDS011;22650;49.350;20.898;2024-03-23T10:50:40;17.45;;;12.73;;
36653;SDS011;22650;49.350;20.898;2024-03-23T10:53:12;16.00;;;10.48;;
36653;SDS011;22650;49.350;20.898;2024-03-23T10:55:45;17.83;;;12.50;;
36653;SDS011;22650;49.350;20.898;2024-03-23T10:58:18;17.08;;;11.68;;
36653;SDS011;22650;49.350;20.898;2024-03-23T11:00:52;15.10;;;10.10;;
36653;SDS011;22650;49.350;20.898;2024-03-23T11:03:32;12.35;;;8.80;;
36653;SDS011;22650;49.350;20.898;2024-03-23T11:06:07;13.63;;;8.45;;
36653;SDS011;22650;49.350;20.898;2024-03-23T11:08:40;11.77;;;7.95;;
36653;SDS011;22650;49.350;20.898;2024-03-23T11:11:17;12.20;;;7.80;;
36653;SDS011;22650;49.350;20.898;2024-03-23T11:13:51;13.68;;;8.10;;
36653;SDS011;22650;49.350;20.898;2024-03-23T11:16:23;11.40;;;8.15;;
36653;SDS011;22650;49.350;20.898;2024-03-23T11:22:05;9.13;;;7.55;;
36653;SDS011;22650;49.350;20.898;2024-03-23T11:24:38;10.63;;;6.95;;
36653;SDS011;22650;49.350;20.898;2024-03-23T11:27:15;12.07;;;7.45;;
36653;SDS011;22650;49.350;20.898;2024-03-23T11:29:48;12.00;;;6.93;;
36653;SDS011;22650;49.350;20.898;2024-03-23T11:32:19;8.15;;;6.80;;
36653;SDS011;22650;49.350;20.898;2024-03-23T11:34:52;10.80;;;7.97;;
36653;SDS011;22650;49.350;20.898;2024-03-23T11:37:25;10.05;;;7.35;;
36653;SDS011;22650;49.350;20.898;2024-03-23T11:39:58;9.90;;;7.68;;
36653;SDS011;22650;49.350;20.898;2024-03-23T11:42:30;11.40;;;6.57;;
36653;SDS011;22650;49.350;20.898;2024-03-23T11:45:07;10.68;;;6.75;;
36653;SDS011;22650;49.350;20.898;2024-03-23T11:47:39;8.68;;;7.20;;
36653;SDS011;22650;49.350;20.898;2024-03-23T11:50:18;9.30;;;6.40;;
36653;SDS011;22650;49.350;20.898;2024-03-23T11:52:52;8.45;;;5.57;;
36653;SDS011;22650;49.350;20.898;2024-03-23T11:55:24;7.60;;;6.20;;
36653;SDS011;22650;49.350;20.898;2024-03-23T11:57:56;11.13;;;6.68;;
36653;SDS011;22650;49.350;20.898;2024-03-23T12:00:29;8.80;;;6.50;;
36653;SDS011;22650;49.350;20.898;2024-03-23T12:03:03;8.20;;;5.78;;
36653;SDS011;22650;49.350;20.898;2024-03-23T12:05:37;8.65;;;6.88;;
36653;SDS011;22650;49.350;20.898;2024-03-23T12:08:17;8.57;;;6.63;;
36653;SDS011;22650;49.350;20.898;2024-03-23T12:10:52;8.00;;;6.72;;
36653;SDS011;22650;49.350;20.898;2024-03-23T12:13:24;7.45;;;5.90;;
36653;SDS011;22650;49.350;20.898;2024-03-23T12:16:09;8.57;;;6.45;;
36653;SDS011;22650;49.350;20.898;2024-03-23T12:18:42;7.63;;;6.18;;
36653;SDS011;22650;49.350;20.898;2024-03-23T12:21:15;8.50;;;6.90;;
36653;SDS011;22650;49.350;20.898;2024-03-23T12:23:48;10.23;;;7.10;;
36653;SDS011;22650;49.350;20.898;2024-03-23T12:26:22;9.63;;;6.22;;
36653;SDS011;22650;49.350;20.898;2024-03-23T12:28:54;9.00;;;6.88;;
36653;SDS011;22650;49.350;20.898;2024-03-23T12:31:26;9.75;;;6.65;;
36653;SDS011;22650;49.350;20.898;2024-03-23T12:33:58;9.95;;;7.35;;
36653;SDS011;22650;49.350;20.898;2024-03-23T12:36:30;9.38;;;6.40;;
36653;SDS011;22650;49.350;20.898;2024-03-23T12:39:03;8.05;;;6.38;;
36653;SDS011;22650;49.350;20.898;2024-03-23T12:41:36;8.60;;;6.60;;
36653;SDS011;22650;49.350;20.898;2024-03-23T12:44:07;8.27;;;6.22;;
36653;SDS011;22650;49.350;20.898;2024-03-23T12:49:13;9.55;;;6.70;;
36653;SDS011;22650;49.350;20.898;2024-03-23T12:51:48;10.25;;;6.43;;
36653;SDS011;22650;49.350;20.898;2024-03-23T12:54:26;8.73;;;6.00;;
36653;SDS011;22650;49.350;20.898;2024-03-23T12:56:59;7.93;;;6.05;;
36653;SDS011;22650;49.350;20.898;2024-03-23T12:59:30;8.43;;;6.15;;
36653;SDS011;22650;49.350;20.898;2024-03-23T13:02:05;8.57;;;6.32;;
36653;SDS011;22650;49.350;20.898;2024-03-23T13:04:37;10.43;;;5.75;;
36653;SDS011;22650;49.350;20.898;2024-03-23T13:07:10;11.95;;;6.55;;
36653;SDS011;22650;49.350;20.898;2024-03-23T13:09:43;9.13;;;6.90;;
36653;SDS011;22650;49.350;20.898;2024-03-23T13:12:16;8.32;;;6.40;;
36653;SDS011;22650;49.350;20.898;2024-03-23T13:14:49;7.65;;;5.57;;
36653;SDS011;22650;49.350;20.898;2024-03-23T13:17:21;8.75;;;6.15;;
36653;SDS011;22650;49.350;20.898;2024-03-23T13:19:53;8.18;;;5.50;;
36653;SDS011;22650;49.350;20.898;2024-03-23T13:22:26;8.38;;;6.30;;
36653;SDS011;22650;49.350;20.898;2024-03-23T13:24:59;9.65;;;6.93;;
36653;SDS011;22650;49.350;20.898;2024-03-23T13:27:32;12.15;;;6.75;;
36653;SDS011;22650;49.350;20.898;2024-03-23T13:30:04;12.60;;;7.50;;
36653;SDS011;22650;49.350;20.898;2024-03-23T13:32:38;10.30;;;7.10;;
36653;SDS011;22650;49.350;20.898;2024-03-23T13:35:09;10.93;;;6.72;;
36653;SDS011;22650;49.350;20.898;2024-03-23T13:37:42;9.35;;;6.50;;
36653;SDS011;22650;49.350;20.898;2024-03-23T13:40:15;10.25;;;7.28;;
36653;SDS011;22650;49.350;20.898;2024-03-23T13:42:48;10.32;;;7.20;;
36653;SDS011;22650;49.350;20.898;2024-03-23T13:45:19;10.02;;;7.13;;
36653;SDS011;22650;49.350;20.898;2024-03-23T13:47:52;9.25;;;6.40;;
36653;SDS011;22650;49.350;20.898;2024-03-23T13:50:23;10.75;;;7.10;;
36653;SDS011;22650;49.350;20.898;2024-03-23T13:52:56;8.60;;;6.53;;
36653;SDS011;22650;49.350;20.898;2024-03-23T13:55:29;9.57;;;6.07;;
36653;SDS011;22650;49.350;20.898;2024-03-23T13:58:01;8.88;;;6.25;;
36653;SDS011;22650;49.350;20.898;2024-03-23T14:00:36;10.23;;;6.18;;
36653;SDS011;22650;49.350;20.898;2024-03-23T14:03:08;9.13;;;6.55;;
36653;SDS011;22650;49.350;20.898;2024-03-23T14:05:40;9.45;;;6.55;;
36653;SDS011;22650;49.350;20.898;2024-03-23T14:08:13;10.80;;;5.80;;
36653;SDS011;22650;49.350;20.898;2024-03-23T14:10:46;8.50;;;6.32;;
36653;SDS011;22650;49.350;20.898;2024-03-23T14:13:18;8.85;;;6.05;;
36653;SDS011;22650;49.350;20.898;2024-03-23T14:15:52;7.40;;;5.28;;
36653;SDS011;22650;49.350;20.898;2024-03-23T14:18:25;8.65;;;5.57;;
36653;SDS011;22650;49.350;20.898;2024-03-23T14:20:57;8.32;;;5.78;;
36653;SDS011;22650;49.350;20.898;2024-03-23T14:23:30;7.80;;;6.05;;
36653;SDS011;22650;49.350;20.898;2024-03-23T14:26:05;8.68;;;6.75;;
36653;SDS011;22650;49.350;20.898;2024-03-23T14:28:38;7.70;;;5.95;;
36653;SDS011;22650;49.350;20.898;2024-03-23T14:31:10;8.32;;;5.90;;
36653;SDS011;22650;49.350;20.898;2024-03-23T14:33:43;8.45;;;6.35;;
36653;SDS011;22650;49.350;20.898;2024-03-23T14:36:17;7.60;;;5.80;;
36653;SDS011;22650;49.350;20.898;2024-03-23T14:38:49;7.68;;;5.50;;
36653;SDS011;22650;49.350;20.898;2024-03-23T14:41:22;9.38;;;6.32;;
36653;SDS011;22650;49.350;20.898;2024-03-23T14:43:55;8.20;;;5.80;;
36653;SDS011;22650;49.350;20.898;2024-03-23T14:46:27;7.05;;;5.63;;
36653;SDS011;22650;49.350;20.898;2024-03-23T14:49:00;8.70;;;6.30;;
36653;SDS011;22650;49.350;20.898;2024-03-23T14:51:32;7.72;;;6.00;;
36653;SDS011;22650;49.350;20.898;2024-03-23T14:54:04;8.95;;;5.70;;
36653;SDS011;22650;49.350;20.898;2024-03-23T14:56:37;8.80;;;6.82;;
36653;SDS011;22650;49.350;20.898;2024-03-23T14:59:10;9.90;;;5.70;;
36653;SDS011;22650;49.350;20.898;2024-03-23T15:01:41;7.05;;;5.93;;
36653;SDS011;22650;49.350;20.898;2024-03-23T15:04:14;8.85;;;5.97;;
36653;SDS011;22650;49.350;20.898;2024-03-23T15:06:45;9.52;;;6.05;;
36653;SDS011;22650;49.350;20.898;2024-03-23T15:09:20;9.60;;;6.20;;
36653;SDS011;22650;49.350;20.898;2024-03-23T15:11:53;7.82;;;5.82;;
36653;SDS011;22650;49.350;20.898;2024-03-23T15:14:26;8.50;;;5.45;;
36653;SDS011;22650;49.350;20.898;2024-03-23T15:16:58;8.25;;;5.70;;
36653;SDS011;22650;49.350;20.898;2024-03-23T15:19:30;7.88;;;5.88;;
36653;SDS011;22650;49.350;20.898;2024-03-23T15:22:02;8.73;;;5.93;;
36653;SDS011;22650;49.350;20.898;2024-03-23T15:24:35;7.60;;;6.00;;
36653;SDS011;22650;49.350;20.898;2024-03-23T15:27:08;8.20;;;5.47;;
36653;SDS011;22650;49.350;20.898;2024-03-23T15:29:41;9.18;;;5.47;;
36653;SDS011;22650;49.350;20.898;2024-03-23T15:34:48;7.68;;;4.72;;
36653;SDS011;22650;49.350;20.898;2024-03-23T15:37:20;9.50;;;4.88;;
36653;SDS011;22650;49.350;20.898;2024-03-23T15:39:52;6.47;;;5.70;;
36653;SDS011;22650;49.350;20.898;2024-03-23T15:42:25;5.60;;;4.97;;
36653;SDS011;22650;49.350;20.898;2024-03-23T15:44:58;7.43;;;6.10;;
36653;SDS011;22650;49.350;20.898;2024-03-23T15:47:40;9.73;;;5.93;;
36653;SDS011;22650;49.350;20.898;2024-03-23T15:50:14;10.18;;;6.10;;
36653;SDS011;22650;49.350;20.898;2024-03-23T15:52:45;8.18;;;5.50;;
36653;SDS011;22650;49.350;20.898;2024-03-23T15:55:18;6.50;;;5.20;;